Terminal Aerodrome Forecast
Issued by NWS Des Moines, IA

Home | Current Version | Previous Version | Text Only | Print | Product List | Glossary On
Versions: 1 2 3 4 5 6 7 8 9 10 11 12 13 14 15 16 17 18 19 20 21 22 23 24 25 26 27 28 29 30 31 32 33 34 35
768
FTUS43 KDMX 241120
TAFALO
TAF
KALO 241120Z 2412/2512 23006KT P6SM FEW015 SCT025
      TEMPO 2413/2415 BKN015
     FM241500 31009KT P6SM SCT200=

USA.gov is the U.S. government's official web portal to all federal, state and local government web resources and services.